createdAt,value
2022-11-21T00:02:29.453Z,95008.28
2022-11-21T00:07:31.889Z,94987.97
2022-11-21T00:12:34.220Z,95047.13
2022-11-21T00:17:36.434Z,94987.56
2022-11-21T00:22:38.549Z,95003.91
2022-11-21T00:27:41.240Z,94975.88
2022-11-21T00:32:43.332Z,94945.81
2022-11-21T00:37:45.589Z,94934.13
2022-11-21T00:42:47.862Z,94984.16
2022-11-21T00:47:50.007Z,94941.31
2022-11-21T00:52:59.164Z,94911.72
2022-11-21T00:58:01.421Z,94905.16
2022-11-21T01:03:03.795Z,94876.91
2022-11-21T01:08:06.012Z,94898.16
2022-11-21T01:13:08.424Z,94845.00
2022-11-21T01:18:10.625Z,94838.72
2022-11-21T01:23:12.790Z,94830.06
2022-11-21T01:28:14.886Z,94805.25
2022-11-21T01:33:16.952Z,94824.78
2022-11-21T01:38:19.304Z,94823.38
2022-11-21T01:43:21.574Z,94799.38
2022-11-21T01:48:27.720Z,94770.53
2022-11-21T01:53:29.971Z,94762.34
2022-11-21T01:58:35.536Z,94773.59
2022-11-21T02:03:38.849Z,94803.53
2022-11-21T02:08:43.781Z,94849.72
2022-11-21T02:13:45.837Z,94846.22
2022-11-21T02:18:48.289Z,94863.31
2022-11-21T02:24:00.354Z,94862.53
2022-11-21T02:29:03.095Z,94829.25
2022-11-21T02:34:05.196Z,94829.00
2022-11-21T02:39:10.142Z,94804.53
2022-11-21T02:44:22.557Z,94731.81
2022-11-21T02:49:51.439Z,94736.81
2022-11-21T02:54:53.809Z,94733.53
2022-11-21T02:59:55.900Z,94731.75
2022-11-21T03:04:58.145Z,94766.22
2022-11-21T03:10:00.333Z,94756.69
2022-11-21T03:15:02.845Z,94810.19
2022-11-21T03:20:06.331Z,94830.16
2022-11-21T03:25:08.876Z,94826.91
2022-11-21T03:30:12.197Z,94818.25
2022-11-21T03:35:15.404Z,94808.56
2022-11-21T03:40:17.638Z,94821.28
2022-11-21T03:45:20.616Z,94763.13
2022-11-21T03:50:22.988Z,94778.22
2022-11-21T03:55:25.113Z,94806.28
2022-11-21T04:00:27.322Z,94791.88
2022-11-21T04:05:30.011Z,94740.63
2022-11-21T04:10:32.123Z,94756.06
2022-11-21T04:15:34.173Z,94756.28
2022-11-21T04:20:36.608Z,94750.63
2022-11-21T04:25:38.881Z,94712.31
2022-11-21T04:30:44.707Z,94724.66
2022-11-21T04:35:47.661Z,94725.00
2022-11-21T04:40:50.153Z,94699.06
2022-11-21T04:45:52.558Z,94712.84
2022-11-21T04:50:54.691Z,94742.94
2022-11-21T04:55:56.950Z,94734.13
2022-11-21T05:01:06.190Z,94720.16
2022-11-21T05:06:08.726Z,94756.63
2022-11-21T05:11:29.385Z,94748.34
2022-11-21T05:16:33.595Z,94783.75
2022-11-21T05:21:36.002Z,94744.06
2022-11-21T05:26:38.367Z,94758.47
2022-11-21T05:31:40.489Z,94750.13
2022-11-21T05:36:42.833Z,94763.44
2022-11-21T05:41:45.138Z,94751.63
2022-11-21T05:46:47.665Z,94754.09
2022-11-21T05:51:49.883Z,94812.75
2022-11-21T05:56:52.060Z,94825.25
2022-11-21T06:02:12.870Z,94819.47
2022-11-21T06:07:20.080Z,94807.88
2022-11-21T06:12:25.431Z,94845.56
2022-11-21T06:17:28.155Z,94828.22
2022-11-21T06:22:30.389Z,94875.44
2022-11-21T06:27:32.639Z,94851.47
2022-11-21T06:32:38.634Z,94853.22
2022-11-21T06:37:40.695Z,94865.06
2022-11-21T06:42:42.976Z,94850.28
2022-11-21T06:47:45.213Z,94847.31
2022-11-21T06:52:47.367Z,94869.63
2022-11-21T06:57:49.730Z,94861.53
2022-11-21T07:02:51.913Z,94849.13
2022-11-21T07:08:02.250Z,94839.16
2022-11-21T07:13:22.920Z,94824.13
2022-11-21T07:18:25.227Z,94826.88
2022-11-21T07:23:28.200Z,94807.81
2022-11-21T07:28:32.421Z,94811.94
2022-11-21T07:33:34.672Z,94815.75
2022-11-21T07:38:36.916Z,94806.66
2022-11-21T07:43:39.314Z,94829.50
2022-11-21T07:48:41.439Z,94869.94
2022-11-21T07:53:43.425Z,94867.00
2022-11-21T07:58:45.631Z,94877.75
2022-11-21T08:03:47.856Z,94845.75
2022-11-21T08:08:56.198Z,94867.19
2022-11-21T08:13:59.915Z,94886.38
2022-11-21T08:19:02.268Z,94899.22
2022-11-21T08:24:05.392Z,94890.72
2022-11-21T08:29:07.690Z,94893.09
2022-11-21T08:34:14.204Z,94915.50
2022-11-21T08:39:16.817Z,94933.22
2022-11-21T08:44:18.848Z,94935.94
2022-11-21T08:49:21.225Z,94954.47
2022-11-21T08:54:24.971Z,94985.34
2022-11-21T08:59:27.209Z,94986.13
2022-11-21T09:04:29.827Z,94988.41
2022-11-21T09:09:32.105Z,94996.88
2022-11-21T09:14:52.724Z,94989.88
2022-11-21T09:19:55.032Z,95001.34
2022-11-21T09:24:57.356Z,94993.06
2022-11-21T09:29:59.775Z,94995.19
2022-11-21T09:35:02.102Z,95010.28
2022-11-21T09:40:06.191Z,95021.63
2022-11-21T09:45:34.752Z,95024.69
2022-11-21T09:50:41.843Z,95037.59
2022-11-21T09:55:58.811Z,95071.75
2022-11-21T10:01:01.777Z,95065.97
2022-11-21T10:06:20.754Z,95119.59
2022-11-21T10:11:33.225Z,95119.78
2022-11-21T10:17:01.595Z,95133.81
2022-11-21T10:22:19.121Z,95142.78
2022-11-21T10:27:34.886Z,95148.38
2022-11-21T10:32:41.220Z,95161.41
2022-11-21T10:37:54.727Z,95144.34
2022-11-21T10:43:44.815Z,95166.88
2022-11-21T10:49:00.932Z,95153.38
2022-11-21T10:54:27.503Z,95114.47
2022-11-21T10:59:31.500Z,95144.94
2022-11-21T11:04:43.826Z,95164.97
2022-11-21T11:09:48.747Z,95143.09
2022-11-21T11:14:53.420Z,95135.88
2022-11-21T11:20:07.309Z,95123.66
2022-11-21T11:25:10.139Z,95118.22
2022-11-21T11:30:17.645Z,95136.38
2022-11-21T11:35:23.398Z,95106.63
2022-11-21T11:40:41.553Z,95150.94
2022-11-21T11:46:50.188Z,95146.56
2022-11-21T11:51:57.347Z,95155.91
2022-11-21T11:56:59.963Z,95153.16
2022-11-21T12:02:11.681Z,95166.38
2022-11-21T12:08:38.740Z,95143.53
2022-11-21T12:13:02.765Z,95144.34
2022-11-21T12:18:07.716Z,95151.16
2022-11-21T12:23:10.913Z,95157.34
2022-11-21T12:28:31.636Z,95149.25
2022-11-21T12:33:40.178Z,95181.19
2022-11-21T12:39:27.080Z,95200.09
2022-11-21T12:44:56.016Z,95167.72
2022-11-21T12:50:41.649Z,95175.44
2022-11-21T12:55:43.879Z,95201.41
2022-11-21T13:01:30.134Z,95202.88
2022-11-21T13:06:39.085Z,95204.34
2022-11-21T13:12:07.983Z,95194.94
2022-11-21T13:17:29.099Z,95204.25
2022-11-21T13:22:37.612Z,95220.34
2022-11-21T13:27:43.114Z,95220.41
2022-11-21T13:32:55.458Z,95207.00
2022-11-21T13:38:08.408Z,95214.00
2022-11-21T13:43:34.505Z,95207.34
2022-11-21T13:49:05.081Z,95215.97
2022-11-21T13:54:27.096Z,95194.84
2022-11-21T13:59:49.721Z,95213.91
2022-11-21T14:05:13.604Z,95212.78
2022-11-21T14:10:25.565Z,95227.81
2022-11-21T14:15:51.669Z,95219.75
2022-11-21T14:20:57.712Z,95217.69
2022-11-21T14:26:11.025Z,95210.91
2022-11-21T14:31:15.044Z,95223.44
2022-11-21T14:36:20.354Z,95239.72
2022-11-21T14:41:25.268Z,95238.38
2022-11-21T14:46:30.185Z,95248.22
2022-11-21T14:51:32.624Z,95212.38
2022-11-21T14:56:34.915Z,95233.59
2022-11-21T15:01:37.146Z,95240.28
2022-11-21T15:06:44.881Z,95263.06
2022-11-21T15:12:00.637Z,95268.41
2022-11-21T15:17:07.056Z,95245.97
2022-11-21T15:22:31.231Z,95229.03
2022-11-21T15:27:35.441Z,95268.75
2022-11-21T15:33:01.212Z,95257.66
2022-11-21T15:38:03.686Z,95273.09
2022-11-21T15:43:09.735Z,95250.09
2022-11-21T15:48:11.998Z,95278.31
2022-11-21T15:53:18.487Z,95276.31
2022-11-21T15:58:20.752Z,95286.09
2022-11-21T16:03:23.043Z,95270.44
2022-11-21T16:08:25.187Z,95272.84
2022-11-21T16:13:27.673Z,95281.97
2022-11-21T16:18:30.144Z,95270.94
2022-11-21T16:23:32.405Z,95279.56
2022-11-21T16:28:35.545Z,95302.88
2022-11-21T16:33:39.783Z,95301.63
2022-11-21T16:38:42.867Z,95302.00
2022-11-21T16:43:50.191Z,95317.41
2022-11-21T16:49:03.294Z,95321.41
2022-11-21T16:54:09.128Z,95315.06
2022-11-21T16:59:11.868Z,95315.19
2022-11-21T17:04:17.157Z,95315.59
2022-11-21T17:09:19.894Z,95320.38
2022-11-21T17:14:22.193Z,95356.56
2022-11-21T17:19:24.375Z,95367.00
2022-11-21T17:24:26.772Z,95363.81
2022-11-21T17:29:29.996Z,95370.81
2022-11-21T17:34:33.357Z,95379.41
2022-11-21T17:39:36.594Z,95388.78
2022-11-21T17:44:39.025Z,95406.03
2022-11-21T17:49:41.596Z,95394.28
2022-11-21T17:54:43.733Z,95413.34
2022-11-21T17:59:47.058Z,95421.34
2022-11-21T18:04:50.008Z,95417.59
2022-11-21T18:09:52.649Z,95431.72
2022-11-21T18:14:54.923Z,95433.63
2022-11-21T18:19:58.345Z,95456.28
2022-11-21T18:25:01.645Z,95454.16
2022-11-21T18:30:05.306Z,95450.78
2022-11-21T18:35:07.641Z,95447.97
2022-11-21T18:40:10.479Z,95443.53
2022-11-21T18:45:12.761Z,95470.44
2022-11-21T18:50:15.598Z,95482.78
2022-11-21T18:55:17.652Z,95482.94
2022-11-21T19:00:20.096Z,95489.59
2022-11-21T19:05:22.361Z,95485.91
2022-11-21T19:15:47.351Z,95512.44
2022-11-21T19:20:49.520Z,95514.09
2022-11-21T19:25:51.580Z,95513.63
2022-11-21T19:30:53.714Z,95521.66
2022-11-21T19:36:07.761Z,95534.84
2022-11-21T19:41:16.701Z,95543.47
2022-11-21T19:46:21.778Z,95538.97
2022-11-21T19:51:29.599Z,95503.75
2022-11-21T19:56:32.568Z,95526.03
2022-11-21T20:01:35.690Z,95528.69
2022-11-21T20:06:41.651Z,95536.47
2022-11-21T20:11:46.214Z,95546.22
2022-11-21T20:16:49.853Z,95552.81
2022-11-21T20:21:53.084Z,95532.66
2022-11-21T20:26:55.355Z,95541.16
2022-11-21T20:31:59.446Z,95528.44
2022-11-21T20:37:01.733Z,95529.91
2022-11-21T20:42:03.993Z,95523.16
2022-11-21T20:47:07.659Z,95535.13
2022-11-21T20:53:43.860Z,95535.75
2022-11-21T20:57:32.079Z,95532.09
2022-11-21T21:02:34.260Z,95533.75
2022-11-21T21:07:36.532Z,95545.63
2022-11-21T21:12:38.849Z,95532.34
2022-11-21T21:17:41.166Z,95545.59
2022-11-21T21:22:43.287Z,95539.28
2022-11-21T21:27:53.371Z,95567.81
2022-11-21T21:32:55.996Z,95554.88
2022-11-21T21:37:58.075Z,95549.00
2022-11-21T21:43:00.708Z,95554.41
2022-11-21T21:48:03.007Z,95545.19
2022-11-21T21:53:05.098Z,95562.38
2022-11-21T21:58:07.166Z,95553.41
2022-11-21T22:03:09.192Z,95563.84
2022-11-21T22:08:11.456Z,95566.34
2022-11-21T22:13:13.540Z,95575.13
2022-11-21T22:18:15.614Z,95570.69
2022-11-21T22:23:17.818Z,95543.72
2022-11-21T22:28:19.961Z,95576.59
2022-11-21T22:33:22.174Z,95599.56
2022-11-21T22:38:24.420Z,95598.28
2022-11-21T22:43:26.417Z,95600.66
2022-11-21T22:48:29.505Z,95602.59
2022-11-21T22:53:37.024Z,95601.78
2022-11-21T22:58:42.698Z,95611.34
2022-11-21T23:03:45.459Z,95602.38
2022-11-21T23:08:48.017Z,95602.41
2022-11-21T23:13:51.701Z,95608.75
2022-11-21T23:18:55.385Z,95595.81
2022-11-21T23:23:57.555Z,95617.34
2022-11-21T23:29:05.039Z,95612.88
2022-11-21T23:34:11.376Z,95633.53
2022-11-21T23:39:13.775Z,95627.38
2022-11-21T23:44:16.081Z,95630.53
2022-11-21T23:49:18.195Z,95651.66
2022-11-21T23:54:20.271Z,95642.41
2022-11-21T23:59:22.522Z,95656.47
